Time;durP1;ratioP1;P1;durP2;ratioP2;P2;SDS_P1;SDS_P2;PMS_P1;PMS_P2;Temp;Humidity;BMP_temperature;BMP_pressure;BME280_temperature;BME280_humidity;BME280_pressure;Samples;Min_cycle;Max_cycle;Signal;HPM_P1;HPM_P2
2021/10/02 00:34:44;;;;;;;68.20;29.00;;;;;;;4.43;78.76;101005.25;116201;1204;23102;-63
2021/10/02 00:37:37;;;;;;;69.10;29.30;;;;;;;4.41;78.39;101003.14;116161;1205;23427;-63
2021/10/02 00:45:39;;;;;;;59.10;26.70;;;;;;;4.40;78.83;101002.08;116045;1204;137924;-62
2021/10/02 00:48:08;;;;;;;58.40;26.40;;;;;;;4.39;78.61;101000.77;116257;1190;22479;-62
2021/10/02 00:50:38;;;;;;;54.90;25.40;;;;;;;4.39;78.91;100999.58;116024;1204;137892;-62
2021/10/02 00:53:06;;;;;;;51.80;24.50;;;;;;;4.40;78.80;100997.34;116188;1204;23374;-62
2021/10/02 00:55:34;;;;;;;50.90;23.70;;;;;;;4.40;78.70;100990.20;116705;1197;22331;-62
2021/10/02 00:58:03;;;;;;;51.80;24.30;;;;;;;4.40;78.75;100989.96;116563;1187;137803;-62
2021/10/02 01:00:34;;;;;;;53.00;24.00;;;;;;;4.40;78.59;100992.25;116647;1200;23177;-62
2021/10/02 01:03:14;;;;;;;44.80;22.60;;;;;;;4.40;78.78;100991.95;116524;1197;137600;-62
2021/10/02 01:05:50;;;;;;;44.30;21.40;;;;;;;4.40;78.55;100992.11;116643;1200;22345;-61
2021/10/02 01:08:22;;;;;;;38.50;20.50;;;;;;;4.39;78.56;100995.27;116566;1199;137844;-61
2021/10/02 01:11:16;;;;;;;42.50;21.20;;;;;;;4.38;78.50;100993.20;116655;1200;23140;-61
2021/10/02 01:14:27;;;;;;;36.40;20.00;;;;;;;4.38;78.59;100989.27;116540;1200;139355;-61
2021/10/02 01:16:58;;;;;;;39.00;19.40;;;;;;;4.37;78.35;100992.80;116548;1200;22223;-62
2021/10/02 01:19:48;;;;;;;39.20;19.00;;;;;;;4.35;78.60;100992.86;116668;1201;22190;-62
2021/10/02 01:22:54;;;;;;;33.70;18.80;;;;;;;4.34;78.62;100989.42;116544;1200;22398;-62
2021/10/02 01:25:54;;;;;;;32.70;18.00;;;;;;;4.31;78.53;100985.13;116609;1200;22999;-62
2021/10/02 01:28:23;;;;;;;36.00;18.70;;;;;;;4.29;78.43;100988.98;116540;1187;137541;-63
2021/10/02 01:31:16;;;;;;;30.80;17.80;;;;;;;4.28;78.63;100988.41;116646;1201;23076;-63
2021/10/02 01:34:02;;;;;;;30.50;18.00;;;;;;;4.25;78.50;100989.70;116477;1200;138439;-63
2021/10/02 01:47:32;;;;;;;26.40;15.20;;;;;;;4.19;78.08;100992.20;116524;1201;23210;-61
2021/10/02 01:50:00;;;;;;;28.30;16.30;;;;;;;4.16;78.11;100990.84;116623;1200;22316;-62
2021/10/02 01:52:39;;;;;;;27.00;16.30;;;;;;;4.13;77.99;100987.29;116510;1201;137692;-61
2021/10/02 01:55:09;;;;;;;24.90;15.80;;;;;;;4.10;78.27;100988.02;116613;1200;22247;-61
2021/10/02 01:57:49;;;;;;;24.50;15.80;;;;;;;4.08;78.20;100990.41;116521;1201;138309;-61
2021/10/02 02:00:18;;;;;;;29.80;16.80;;;;;;;4.05;78.34;100992.11;116640;1200;22197;-61
2021/10/02 02:02:52;;;;;;;26.10;16.20;;;;;;;4.02;78.43;100988.50;116446;1200;140311;-61
2021/10/02 02:05:21;;;;;;;33.60;17.20;;;;;;;4.02;78.71;100992.77;116641;1201;22314;-61
2021/10/02 02:07:52;;;;;;;30.20;15.90;;;;;;;4.01;78.58;100991.05;116696;1200;22327;-61
2021/10/02 02:10:21;;;;;;;30.00;17.40;;;;;;;4.00;78.62;100993.08;116564;1200;138373;-61
2021/10/02 02:12:50;;;;;;;23.20;15.50;;;;;;;3.99;78.64;100994.17;116665;1200;22794;-61
2021/10/02 02:15:18;;;;;;;26.30;16.00;;;;;;;3.99;78.72;100994.51;116257;1201;137723;-61
2021/10/02 02:17:48;;;;;;;28.70;15.40;;;;;;;3.99;78.75;100991.84;116477;1201;22364;-61
2021/10/02 02:20:19;;;;;;;25.90;14.90;;;;;;;3.99;78.78;100995.58;116594;1200;138309;-61
2021/10/02 02:22:47;;;;;;;32.90;16.90;;;;;;;3.98;78.58;100996.02;116594;1200;22260;-61
2021/10/02 02:25:16;;;;;;;28.40;16.40;;;;;;;3.98;78.66;100998.20;116614;1200;23376;-61
2021/10/02 02:27:44;;;;;;;28.70;15.40;;;;;;;3.96;78.61;100995.77;116433;1200;138598;-61
2021/10/02 02:30:12;;;;;;;26.90;14.70;;;;;;;3.95;78.66;100994.42;116705;1200;22309;-61
2021/10/02 02:32:40;;;;;;;26.10;15.70;;;;;;;3.94;78.84;100991.29;116604;1200;137963;-61
2021/10/02 02:35:09;;;;;;;23.00;13.90;;;;;;;3.96;79.06;100990.38;116697;1200;23473;-62
2021/10/02 02:37:37;;;;;;;25.40;15.70;;;;;;;3.97;79.02;100991.38;116744;1200;22814;-62
2021/10/02 02:40:05;;;;;;;26.30;16.30;;;;;;;3.97;78.84;100985.07;116589;1198;137526;-62
2021/10/02 02:42:33;;;;;;;23.60;14.40;;;;;;;3.95;78.89;100985.66;116931;1199;22303;-62
2021/10/02 02:45:02;;;;;;;24.80;14.10;;;;;;;3.94;78.79;100980.17;116525;1200;140411;-62
2021/10/02 02:47:30;;;;;;;25.50;14.50;;;;;;;3.94;78.89;100983.73;116696;1199;22274;-62
2021/10/02 02:50:06;;;;;;;23.50;15.10;;;;;;;3.91;78.85;100981.54;116631;1200;22337;-62
2021/10/02 02:52:43;;;;;;;27.40;15.10;;;;;;;3.94;79.19;100982.15;116590;1199;137321;-62
2021/10/02 02:55:12;;;;;;;27.50;15.80;;;;;;;3.92;78.88;100977.65;116939;1193;22281;-62
2021/10/02 02:57:46;;;;;;;20.90;14.80;;;;;;;3.92;78.92;100974.61;116554;1199;137808;-62
2021/10/02 03:00:20;;;;;;;27.00;15.10;;;;;;;3.92;78.90;100975.19;116960;1198;22331;-62
2021/10/02 03:02:52;;;;;;;22.30;15.00;;;;;;;3.93;79.09;100969.98;116562;1199;138766;-62
2021/10/02 03:05:22;;;;;;;21.30;14.10;;;;;;;3.96;79.47;100972.23;116720;1199;22269;-62
2021/10/02 03:08:04;;;;;;;22.80;14.50;;;;;;;3.97;79.26;100971.33;116564;1200;22366;-62
2021/10/02 03:10:33;;;;;;;21.70;14.50;;;;;;;3.96;78.90;100962.63;116616;1199;137625;-62
2021/10/02 03:13:20;;;;;;;27.70;15.40;;;;;;;3.97;78.71;100961.23;116650;1200;22238;-62
2021/10/02 03:15:49;;;;;;;22.20;14.10;;;;;;;3.97;79.16;100960.40;115285;1197;137795;-58
2021/10/02 03:18:18;;;;;;;23.30;14.10;;;;;;;3.96;79.00;100960.67;112286;1199;25019;-58
2021/10/02 03:20:50;;;;;;;23.90;14.70;;;;;;;3.95;78.94;100957.75;112239;1200;138789;-58
2021/10/02 03:23:20;;;;;;;31.80;15.80;;;;;;;3.92;78.94;100960.23;112363;1193;24115;-58
2021/10/02 03:25:48;;;;;;;23.50;15.80;;;;;;;3.92;78.97;100954.13;112336;1199;24074;-59
2021/10/02 03:28:17;;;;;;;20.50;14.10;;;;;;;3.91;79.09;100954.44;112319;1197;137886;-58
2021/10/02 03:30:45;;;;;;;23.90;15.20;;;;;;;3.92;78.98;100955.37;112375;1200;24270;-58
2021/10/02 03:33:13;;;;;;;31.60;15.40;;;;;;;3.92;79.01;100957.56;112192;1188;138125;-60
2021/10/02 03:35:43;;;;;;;24.70;15.40;;;;;;;3.91;79.27;100953.82;116654;1199;23003;-60
2021/10/02 03:38:11;;;;;;;29.10;14.50;;;;;;;3.93;79.52;100956.91;117024;1199;23017;-60
2021/10/02 03:40:39;;;;;;;21.70;14.00;;;;;;;3.94;79.35;100960.55;116595;1199;137534;-59
2021/10/02 03:43:07;;;;;;;20.20;13.60;;;;;;;3.96;79.47;100961.25;116892;1199;22288;-60
2021/10/02 03:45:38;;;;;;;24.20;14.10;;;;;;;3.97;79.36;100957.87;116765;1198;138728;-63
2021/10/02 03:48:06;;;;;;;22.30;14.40;;;;;;;3.98;79.27;100958.30;116906;1198;23419;-63
2021/10/02 03:50:37;;;;;;;27.00;15.50;;;;;;;3.98;79.38;100952.88;116526;1200;138313;-62
2021/10/02 03:53:05;;;;;;;23.80;14.90;;;;;;;3.98;79.42;100951.63;116893;1199;23379;-63
2021/10/02 03:55:33;;;;;;;23.30;14.30;;;;;;;3.99;79.13;100952.60;116697;1200;22317;-62
2021/10/02 03:58:02;;;;;;;26.00;15.20;;;;;;;3.99;79.10;100955.71;116791;1199;138803;-61
2021/10/02 04:00:30;;;;;;;23.30;14.20;;;;;;;4.00;79.03;100956.64;116884;1199;23142;-61
2021/10/02 04:02:58;;;;;;;22.30;13.80;;;;;;;4.00;78.96;100959.10;116523;1200;138189;-61
2021/10/02 04:05:26;;;;;;;20.00;13.70;;;;;;;4.00;79.05;100959.84;116668;1200;22362;-62
2021/10/02 04:07:55;;;;;;;27.20;14.50;;;;;;;4.00;78.99;100964.86;116960;1198;22326;-62
2021/10/02 04:10:23;;;;;;;24.60;14.70;;;;;;;4.04;79.22;100963.39;116704;1199;138083;-62
2021/10/02 04:12:52;;;;;;;26.50;15.10;;;;;;;4.08;79.40;100961.76;116974;1199;22446;-62
2021/10/02 04:15:21;;;;;;;20.90;13.50;;;;;;;4.13;79.64;100962.73;116785;1197;138251;-63
2021/10/02 04:17:49;;;;;;;24.30;13.80;;;;;;;4.18;79.53;100958.20;116879;1199;22333;-62
2021/10/02 04:20:17;;;;;;;24.90;15.90;;;;;;;4.21;79.06;100958.61;116965;1199;22250;-62
2021/10/02 04:23:05;;;;;;;26.90;15.40;;;;;;;4.22;78.96;100956.11;116959;1184;22245;-62
2021/10/02 04:25:33;;;;;;;24.70;16.00;;;;;;;4.24;79.23;100956.48;116213;1198;23628;-62
2021/10/02 04:28:02;;;;;;;21.70;14.50;;;;;;;4.25;79.18;100951.80;112525;1193;137835;-62
2021/10/02 04:30:32;;;;;;;24.50;15.50;;;;;;;4.29;79.29;100950.88;116881;1199;23580;-62
2021/10/02 04:33:00;;;;;;;29.20;15.90;;;;;;;4.33;79.37;100957.58;116819;1199;139068;-62
2021/10/02 04:35:29;;;;;;;25.40;15.50;;;;;;;4.38;79.51;100952.43;116847;1198;23453;-63
2021/10/02 04:37:58;;;;;;;30.30;16.00;;;;;;;4.42;79.51;100950.11;116900;1198;22245;-62
2021/10/02 04:40:26;;;;;;;29.60;16.40;;;;;;;4.48;79.57;100947.28;116767;1198;138967;-64
2021/10/02 04:42:54;;;;;;;28.30;16.00;;;;;;;4.54;79.65;100951.40;116939;1199;22912;-64
2021/10/02 04:45:22;;;;;;;25.70;16.50;;;;;;;4.60;79.66;100952.59;116752;1199;138719;-64
2021/10/02 04:47:50;;;;;;;24.90;16.30;;;;;;;4.67;80.24;100948.70;116961;1193;22234;-64
2021/10/02 04:50:19;;;;;;;27.20;16.90;;;;;;;4.80;79.82;100950.46;116896;1199;22345;-62
2021/10/02 04:52:50;;;;;;;29.10;16.80;;;;;;;4.91;80.16;100946.48;116832;1199;139194;-62
2021/10/02 04:55:18;;;;;;;32.00;16.80;;;;;;;5.04;80.03;100946.44;116704;1200;23424;-63
2021/10/02 04:57:46;;;;;;;25.00;15.70;;;;;;;5.16;79.93;100946.16;116801;1199;138341;-63
2021/10/02 05:00:14;;;;;;;30.20;16.50;;;;;;;5.29;79.61;100945.61;116884;1199;22235;-63
2021/10/02 05:02:42;;;;;;;32.60;24.60;;;;;;;5.42;79.33;100942.65;116710;1200;22215;-63
2021/10/02 05:05:11;;;;;;;44.60;31.70;;;;;;;5.55;79.28;100941.39;116850;1198;138401;-63
2021/10/02 05:07:41;;;;;;;55.30;40.80;;;;;;;5.67;79.01;100943.02;116908;1199;22324;-63
2021/10/02 05:10:09;;;;;;;114.70;94.20;;;;;;;5.80;78.73;100946.79;116717;1193;140035;-63
2021/10/02 05:12:37;;;;;;;79.40;57.10;;;;;;;5.90;78.74;100946.54;116924;1199;22287;-63
2021/10/02 05:15:21;;;;;;;59.50;40.50;;;;;;;6.04;78.53;100951.89;116759;1198;138312;-63
2021/10/02 05:17:49;;;;;;;82.20;54.50;;;;;;;6.16;78.51;100954.21;116837;1198;22269;-62
2021/10/02 05:20:17;;;;;;;69.00;51.30;;;;;;;6.26;78.43;100957.05;116860;1198;22328;-64
2021/10/02 05:22:45;;;;;;;87.10;66.30;;;;;;;6.36;78.55;100953.84;116684;1199;137946;-63
2021/10/02 05:25:14;;;;;;;36.10;24.90;;;;;;;6.48;78.19;100962.39;116958;1199;22310;-64
2021/10/02 05:27:42;;;;;;;54.60;38.10;;;;;;;6.63;77.28;100962.05;116723;1198;140206;-64
2021/10/02 05:30:10;;;;;;;48.00;26.40;;;;;;;6.79;77.33;100960.74;116825;1199;22970;-64
2021/10/02 05:32:38;;;;;;;36.40;18.50;;;;;;;6.92;76.58;100962.21;116913;1199;22766;-63
2021/10/02 05:35:07;;;;;;;30.80;17.70;;;;;;;7.07;75.93;100962.64;116551;1200;138565;-64
2021/10/02 05:37:35;;;;;;;37.30;16.10;;;;;;;7.24;75.71;100965.85;116671;1192;22132;-61
2021/10/02 05:40:03;;;;;;;31.70;16.30;;;;;;;7.40;74.94;100966.05;116762;1199;138334;-63
2021/10/02 05:42:32;;;;;;;40.70;17.40;;;;;;;7.56;74.64;100966.66;116876;1198;22290;-63
2021/10/02 05:45:00;;;;;;;34.20;16.30;;;;;;;7.71;73.90;100964.63;116687;1199;138602;-63
2021/10/02 05:47:29;;;;;;;42.00;19.00;;;;;;;7.86;73.29;100965.21;116841;1199;23384;-63
2021/10/02 05:49:58;;;;;;;35.90;16.70;;;;;;;7.98;73.13;100963.82;116580;1200;22248;-64
2021/10/02 05:52:26;;;;;;;33.30;17.10;;;;;;;8.10;73.03;100964.55;116744;1199;137728;-64
2021/10/02 05:54:54;;;;;;;39.20;16.60;;;;;;;8.21;73.09;100966.73;116839;1193;22412;-64
2021/10/02 05:57:22;;;;;;;30.60;16.30;;;;;;;8.31;72.83;100964.92;116738;1199;138074;-63
2021/10/02 05:59:50;;;;;;;41.40;16.50;;;;;;;8.39;72.71;100965.36;116871;1198;22323;-63
2021/10/02 06:02:18;;;;;;;43.30;17.20;;;;;;;8.49;72.53;100965.66;116962;1197;22748;-63
2021/10/02 06:04:47;;;;;;;39.00;17.20;;;;;;;8.59;72.35;100966.16;116870;1198;150384;-63
2021/10/02 06:07:15;;;;;;;41.00;16.50;;;;;;;8.68;71.86;100963.39;116960;1198;22322;-63
2021/10/02 06:09:43;;;;;;;41.70;17.80;;;;;;;8.78;71.91;100968.36;116897;1192;137764;-63
2021/10/02 06:12:12;;;;;;;38.10;18.10;;;;;;;8.87;71.50;100970.19;117067;1198;22221;-64
2021/10/02 06:14:40;;;;;;;35.70;17.70;;;;;;;8.94;71.18;100968.71;116994;1198;23222;-63
2021/10/02 06:17:08;;;;;;;30.40;16.80;;;;;;;9.03;70.71;100974.13;116874;1199;138804;-63
2021/10/02 06:19:36;;;;;;;33.50;16.50;;;;;;;9.10;70.71;100971.85;117030;1198;22238;-63
2021/10/02 06:22:05;;;;;;;43.70;17.80;;;;;;;9.18;70.50;100975.86;116924;1198;138882;-64
2021/10/02 06:24:35;;;;;;;32.60;15.80;;;;;;;9.26;70.40;100974.58;117064;1198;23122;-65
2021/10/02 06:27:03;;;;;;;34.10;16.60;;;;;;;9.36;70.30;100978.19;116923;1198;138196;-64
2021/10/02 06:29:33;;;;;;;36.40;16.70;;;;;;;9.46;70.19;100979.65;117053;1198;22326;-64
2021/10/02 06:32:02;;;;;;;36.10;18.00;;;;;;;9.55;69.96;100977.10;117042;1198;23014;-65
2021/10/02 06:34:31;;;;;;;35.60;18.10;;;;;;;9.65;70.34;100978.48;116510;1198;138703;-64
2021/10/02 06:36:59;;;;;;;44.30;18.70;;;;;;;9.74;70.15;100976.23;116991;1197;22346;-64
2021/10/02 06:39:27;;;;;;;35.30;17.90;;;;;;;9.84;69.83;100978.02;116849;1199;138182;-65
2021/10/02 06:41:55;;;;;;;52.70;19.20;;;;;;;9.95;69.51;100973.93;116979;1199;22254;-65
2021/10/02 06:44:23;;;;;;;43.50;18.00;;;;;;;10.06;69.91;100974.13;117034;1197;22391;-65
2021/10/02 06:46:52;;;;;;;52.50;19.30;;;;;;;10.16;69.70;100974.39;116758;1197;138086;-65
2021/10/02 06:49:23;;;;;;;38.10;18.50;;;;;;;10.26;69.64;100976.44;117013;1193;22401;-65
2021/10/02 06:51:51;;;;;;;31.90;16.50;;;;;;;10.36;69.64;100972.94;116924;1198;138969;-65
2021/10/02 06:54:19;;;;;;;37.50;17.10;;;;;;;10.46;69.40;100973.79;116961;1191;22221;-65
2021/10/02 06:56:48;;;;;;;38.60;16.10;;;;;;;10.53;68.95;100973.42;117083;1198;22350;-65
2021/10/02 06:59:16;;;;;;;27.10;15.00;;;;;;;10.61;68.27;100969.17;116937;1197;138497;-65
2021/10/02 07:01:46;;;;;;;32.40;15.80;;;;;;;10.70;67.78;100971.09;117029;1197;22329;-65
2021/10/02 07:04:14;;;;;;;25.50;15.10;;;;;;;10.78;67.27;100972.25;116912;1198;138535;-67
2021/10/02 07:06:57;;;;;;;27.80;15.20;;;;;;;10.86;66.92;100974.77;116978;1198;22388;-68
2021/10/02 07:09:25;;;;;;;26.60;14.00;;;;;;;10.92;66.91;100971.73;116909;1198;139307;-68
2021/10/02 07:11:53;;;;;;;28.20;14.80;;;;;;;10.98;65.81;100972.75;117028;1198;22314;-66
2021/10/02 07:14:22;;;;;;;20.40;13.90;;;;;;;11.03;65.54;100972.64;117025;1198;22320;-68
2021/10/02 07:17:11;;;;;;;24.30;13.70;;;;;;;11.07;65.58;100971.09;116910;1198;138722;-68
2021/10/02 07:19:40;;;;;;;28.20;14.20;;;;;;;11.14;65.76;100972.64;117030;1198;22281;-69
2021/10/02 07:22:08;;;;;;;22.50;12.90;;;;;;;11.21;65.79;100969.64;116867;1198;138588;-66
2021/10/02 07:24:36;;;;;;;24.90;12.90;;;;;;;11.25;64.70;100968.02;116967;1198;23122;-66
2021/10/02 07:27:04;;;;;;;22.30;12.20;;;;;;;11.32;64.43;100968.88;116872;1198;138313;-66
2021/10/02 07:29:34;;;;;;;18.70;12.90;;;;;;;11.38;63.69;100969.83;116993;1198;22382;-66
2021/10/02 07:32:02;;;;;;;24.30;13.50;;;;;;;11.42;63.67;100962.41;117073;1197;22218;-66
2021/10/02 07:34:30;;;;;;;21.20;12.20;;;;;;;11.48;63.92;100963.52;116884;1198;138556;-66
2021/10/02 07:37:03;;;;;;;19.50;13.10;;;;;;;11.55;62.70;100961.25;116954;1199;22369;-66
2021/10/02 07:39:31;;;;;;;20.10;11.90;;;;;;;11.61;61.86;100960.50;116861;1194;138284;-66
2021/10/02 07:42:01;;;;;;;27.60;13.30;;;;;;;11.66;62.31;100960.55;116938;1199;22367;-66
2021/10/02 07:44:30;;;;;;;17.40;11.10;;;;;;;11.73;62.40;100960.30;116921;1197;23383;-63
2021/10/02 07:46:58;;;;;;;21.40;11.30;;;;;;;11.81;61.86;100958.38;116895;1192;138363;-63
2021/10/02 07:49:29;;;;;;;18.80;11.20;;;;;;;11.90;61.47;100961.83;116747;1183;22462;-64
2021/10/02 07:51:57;;;;;;;24.70;12.00;;;;;;;11.96;61.68;100958.50;116635;1198;139365;-63
2021/10/02 07:54:28;;;;;;;21.70;12.20;;;;;;;12.03;61.79;100959.98;116891;1198;22309;-63
2021/10/02 07:56:57;;;;;;;21.50;10.40;;;;;;;12.10;61.41;100956.04;116821;1199;139111;-62
2021/10/02 07:59:26;;;;;;;19.80;10.20;;;;;;;12.17;61.52;100960.70;116917;1198;22219;-64
2021/10/02 08:01:56;;;;;;;13.20;8.90;;;;;;;12.26;60.60;100961.28;116932;1192;22311;-64
2021/10/02 08:04:24;;;;;;;18.70;9.20;;;;;;;12.36;58.37;100959.50;116830;1199;137331;-64
2021/10/02 08:06:55;;;;;;;14.50;9.50;;;;;;;12.42;58.22;100958.98;117045;1198;22973;-63
2021/10/02 08:09:26;;;;;;;13.90;8.80;;;;;;;12.47;58.34;100953.55;116683;1199;137480;-63
2021/10/02 08:11:56;;;;;;;17.50;9.10;;;;;;;12.52;58.77;100948.70;117025;1198;22446;-61
2021/10/02 08:14:44;;;;;;;18.00;8.10;;;;;;;12.57;58.60;100950.06;117003;1197;22320;-63
2021/10/02 08:17:14;;;;;;;16.20;9.60;;;;;;;12.63;58.26;100949.30;116869;1197;139408;-64
2021/10/02 08:19:45;;;;;;;20.80;9.50;;;;;;;12.68;57.87;100950.30;117031;1198;23192;-64
2021/10/02 08:22:13;;;;;;;14.80;9.40;;;;;;;12.75;57.77;100946.68;116915;1198;137256;-65
2021/10/02 08:24:41;;;;;;;17.00;9.50;;;;;;;12.82;57.15;100946.79;116878;1199;22171;-65
2021/10/02 08:27:09;;;;;;;15.40;9.00;;;;;;;12.86;56.34;100947.52;116698;1199;138582;-66
2021/10/02 08:29:58;;;;;;;21.00;9.40;;;;;;;12.90;56.82;100949.05;116893;1197;23205;-66
2021/10/02 08:32:27;;;;;;;15.30;9.80;;;;;;;12.94;56.71;100950.26;116792;1194;22529;-66
2021/10/02 08:34:55;;;;;;;23.10;11.50;;;;;;;12.98;56.56;100948.75;116902;1198;137254;-65
2021/10/02 08:37:40;;;;;;;18.70;9.30;;;;;;;13.03;56.14;100950.61;117080;1198;22376;-64
2021/10/02 08:40:10;;;;;;;19.40;10.00;;;;;;;13.09;54.87;100948.58;116869;1198;137759;-66
2021/10/02 08:42:40;;;;;;;16.10;9.00;;;;;;;13.16;55.13;100951.04;116854;1199;22344;-66
2021/10/02 08:45:09;;;;;;;15.90;9.00;;;;;;;13.20;55.24;100947.01;116936;1198;137968;-66
2021/10/02 08:47:42;;;;;;;15.60;8.20;;;;;;;13.23;54.56;100944.80;117001;1197;23773;-66
2021/10/02 08:50:13;;;;;;;19.00;9.50;;;;;;;13.29;54.54;100942.61;117041;1198;22318;-65
2021/10/02 08:52:42;;;;;;;20.90;8.70;;;;;;;13.35;54.79;100943.09;116955;1198;137440;-65
2021/10/02 08:55:11;;;;;;;10.90;7.60;;;;;;;13.38;53.62;100940.21;117005;1198;22526;-66
2021/10/02 08:57:41;;;;;;;10.90;6.80;;;;;;;13.37;52.60;100941.66;116902;1197;137571;-66
2021/10/02 09:00:12;;;;;;;17.00;7.30;;;;;;;13.37;52.26;100935.85;117039;1198;22311;-66
2021/10/02 09:02:40;;;;;;;21.20;6.90;;;;;;;13.37;52.48;100935.69;116943;1198;22201;-65
2021/10/02 09:05:29;;;;;;;20.40;7.70;;;;;;;13.37;52.14;100934.63;116972;1198;137216;-66
2021/10/02 09:07:58;;;;;;;17.80;7.40;;;;;;;13.38;52.65;100933.13;116962;1198;22242;-66
2021/10/02 09:10:46;;;;;;;16.80;7.70;;;;;;;13.41;53.79;100936.82;116898;1198;137338;-66
2021/10/02 09:13:15;;;;;;;17.90;7.70;;;;;;;13.46;54.18;100939.69;117069;1198;22310;-66
2021/10/02 09:15:43;;;;;;;19.10;8.80;;;;;;;13.51;53.50;100933.45;115815;1198;137795;-65
2021/10/02 09:18:12;;;;;;;18.60;8.90;;;;;;;13.57;53.38;100932.52;116860;1184;22357;-66
2021/10/02 09:20:40;;;;;;;16.40;8.90;;;;;;;13.63;54.44;100930.17;117059;1198;22924;-66
2021/10/02 09:23:14;;;;;;;19.80;9.40;;;;;;;13.66;53.94;100929.55;116908;1198;137677;-66
2021/10/02 09:25:45;;;;;;;28.80;10.20;;;;;;;13.70;53.89;100928.52;116735;1186;22166;-66
2021/10/02 09:28:14;;;;;;;11.40;7.00;;;;;;;13.73;52.67;100921.72;116936;1198;137638;-66
2021/10/02 09:30:44;;;;;;;21.70;7.10;;;;;;;13.73;52.15;100920.15;116935;1199;22333;-66
2021/10/02 09:33:20;;;;;;;14.60;7.70;;;;;;;13.74;52.29;100916.76;116847;1198;137522;-66
2021/10/02 09:35:54;;;;;;;15.90;7.60;;;;;;;13.77;52.56;100916.33;116904;1198;22507;-67
2021/10/02 09:38:23;;;;;;;23.00;9.80;;;;;;;13.80;52.99;100915.96;116991;1197;22342;-66
2021/10/02 09:40:57;;;;;;;19.10;9.30;;;;;;;13.84;53.01;100915.37;116904;1198;137353;-65
2021/10/02 09:43:26;;;;;;;16.90;8.00;;;;;;;13.86;52.21;100911.27;116997;1198;22282;-67
2021/10/02 09:45:55;;;;;;;12.20;8.30;;;;;;;13.92;52.34;100912.10;115510;1198;138389;-67
2021/10/02 09:48:29;;;;;;;14.10;7.50;;;;;;;13.95;52.21;100907.35;112719;1198;23747;-66
2021/10/02 09:51:04;;;;;;;19.50;9.40;;;;;;;13.98;52.39;100910.15;117048;1198;22318;-66
2021/10/02 09:53:37;;;;;;;16.00;7.40;;;;;;;14.03;52.15;100904.30;116790;1198;138394;-64
2021/10/02 09:56:12;;;;;;;11.60;7.70;;;;;;;14.09;51.88;100905.85;117042;1198;22429;-68
2021/10/02 09:58:41;;;;;;;13.60;6.60;;;;;;;14.15;50.61;100903.86;116856;1198;138837;-67
2021/10/02 10:01:24;;;;;;;13.80;7.80;;;;;;;14.18;50.71;100900.95;116899;1198;22362;-67
2021/10/02 10:03:54;;;;;;;9.30;5.80;;;;;;;14.17;49.93;100892.86;116969;1198;137486;-68
2021/10/02 10:06:26;;;;;;;9.40;6.10;;;;;;;14.17;50.21;100892.15;116997;1198;22346;-68
2021/10/02 10:09:11;;;;;;;10.00;6.50;;;;;;;14.18;49.71;100883.02;116877;1199;22493;-68
2021/10/02 10:11:48;;;;;;;13.20;6.40;;;;;;;14.20;50.98;100885.63;116912;1198;138384;-68
2021/10/02 10:14:20;;;;;;;8.80;4.80;;;;;;;14.26;49.75;100883.61;117039;1198;22229;-64
2021/10/02 10:16:59;;;;;;;10.80;6.10;;;;;;;14.30;49.52;100883.39;116921;1198;137983;-65
2021/10/02 10:19:29;;;;;;;10.20;5.70;;;;;;;14.34;48.64;100883.23;117088;1198;22319;-64
2021/10/02 10:22:20;;;;;;;11.90;5.80;;;;;;;14.33;48.87;100875.10;116920;1198;137682;-64
2021/10/02 10:24:55;;;;;;;11.10;5.70;;;;;;;14.32;48.36;100873.27;117037;1198;22449;-64
2021/10/02 10:27:32;;;;;;;11.60;5.60;;;;;;;14.29;48.55;100873.88;116813;1198;137991;-64
2021/10/02 10:30:13;;;;;;;10.30;6.50;;;;;;;14.29;48.93;100871.02;117037;1198;22993;-64
2021/10/02 10:33:03;;;;;;;11.10;6.20;;;;;;;14.29;49.06;100865.54;116928;1198;23330;-64
2021/10/02 10:35:36;;;;;;;17.10;7.70;;;;;;;14.29;49.81;100862.97;116922;1197;137191;-64
2021/10/02 10:38:05;;;;;;;11.30;5.00;;;;;;;14.29;49.97;100857.86;117043;1198;22307;-64
2021/10/02 10:40:34;;;;;;;9.80;5.30;;;;;;;14.35;48.67;100858.73;116895;1199;137789;-63
2021/10/02 10:43:02;;;;;;;11.10;5.10;;;;;;;14.38;48.60;100860.38;117012;1198;22304;-67
2021/10/02 10:45:31;;;;;;;11.40;4.80;;;;;;;14.40;48.34;100854.95;116814;1199;137394;-66
2021/10/02 10:47:59;;;;;;;18.10;5.80;;;;;;;14.44;48.66;100852.55;117065;1198;22310;-65
2021/10/02 10:50:47;;;;;;;9.10;5.70;;;;;;;14.52;47.78;100848.56;117030;1197;22351;-65
2021/10/02 10:53:16;;;;;;;10.20;5.50;;;;;;;14.55;47.27;100847.83;116715;1198;137450;-65
2021/10/02 10:56:02;;;;;;;6.50;4.60;;;;;;;14.52;47.14;100843.46;117025;1193;23161;-63
2021/10/02 10:58:31;;;;;;;8.40;5.10;;;;;;;14.51;47.23;100842.67;116919;1198;137294;-65
2021/10/02 11:01:04;;;;;;;6.40;4.70;;;;;;;14.51;46.60;100839.55;117052;1198;23326;-65
2021/10/02 11:03:35;;;;;;;12.60;5.40;;;;;;;14.49;47.12;100838.86;116724;1199;137658;-64
2021/10/02 11:06:05;;;;;;;8.50;4.50;;;;;;;14.48;48.30;100839.67;117016;1198;22305;-66
2021/10/02 11:09:01;;;;;;;9.70;5.60;;;;;;;14.49;47.51;100838.00;117050;1198;22427;-65
2021/10/02 11:11:46;;;;;;;7.40;4.40;;;;;;;14.51;47.58;100836.70;116779;1198;137235;-66
2021/10/02 11:14:16;;;;;;;9.40;4.30;;;;;;;14.52;47.83;100831.40;117031;1198;23067;-66
2021/10/02 11:16:49;;;;;;;8.20;4.10;;;;;;;14.55;47.69;100825.67;116945;1198;137296;-68
2021/10/02 11:19:34;;;;;;;6.30;4.10;;;;;;;14.56;47.81;100828.11;116987;1197;22518;-64
2021/10/02 11:23:05;;;;;;;8.20;5.20;;;;;;;14.59;47.21;100825.61;116972;1187;137117;-65
2021/10/02 11:25:34;;;;;;;13.90;6.10;;;;;;;14.64;47.38;100822.89;116938;1198;25873;-65
2021/10/02 11:28:22;;;;;;;11.30;6.40;;;;;;;14.65;47.55;100823.45;116870;1198;137525;-66
2021/10/02 11:31:00;;;;;;;17.90;5.20;;;;;;;14.62;46.83;100812.29;116997;1194;22817;-65
2021/10/02 11:33:33;;;;;;;10.70;5.30;;;;;;;14.65;47.10;100814.08;116773;1198;137866;-65
2021/10/02 11:36:27;;;;;;;13.10;5.00;;;;;;;14.65;47.21;100816.94;117067;1198;22473;-65
2021/10/02 11:39:21;;;;;;;13.20;5.10;;;;;;;14.68;46.67;100812.36;117040;1192;23380;-66
2021/10/02 11:41:54;;;;;;;12.40;5.40;;;;;;;14.69;46.77;100810.67;116858;1199;137308;-65
2021/10/02 11:44:44;;;;;;;8.10;4.50;;;;;;;14.71;46.42;100812.96;117060;1197;22120;-63
2021/10/02 11:47:33;;;;;;;10.00;4.90;;;;;;;14.72;45.03;100806.38;116918;1198;137343;-64
2021/10/02 11:50:11;;;;;;;7.70;4.30;;;;;;;14.70;45.25;100809.00;116912;1198;22219;-63
2021/10/02 11:52:47;;;;;;;9.60;4.70;;;;;;;14.68;45.47;100802.83;116993;1198;138840;-61
2021/10/02 11:55:34;;;;;;;11.80;5.10;;;;;;;14.66;45.52;100802.73;116853;1198;22447;-61
2021/10/02 11:58:22;;;;;;;12.50;5.00;;;;;;;14.65;45.98;100801.30;112664;1192;137673;-64
2021/10/02 12:01:00;;;;;;;11.20;4.70;;;;;;;14.65;46.53;100801.73;116970;1198;22254;-61
2021/10/02 12:03:31;;;;;;;6.70;4.90;;;;;;;14.67;46.67;100796.22;116920;1192;137294;-61
2021/10/02 12:06:01;;;;;;;11.10;4.10;;;;;;;14.69;46.36;100799.93;117009;1198;23335;-63
2021/10/02 12:08:30;;;;;;;12.20;5.00;;;;;;;14.69;46.42;100795.27;117044;1198;22353;-63
2021/10/02 12:11:10;;;;;;;10.10;4.80;;;;;;;14.71;46.46;100798.77;116832;1199;137281;-62
2021/10/02 12:13:43;;;;;;;14.30;5.70;;;;;;;14.72;46.75;100792.88;117071;1198;22295;-63
2021/10/02 12:16:31;;;;;;;8.50;5.20;;;;;;;14.72;47.00;100789.31;116946;1197;137799;-63
2021/10/02 12:19:03;;;;;;;18.00;9.40;;;;;;;14.73;47.17;100789.23;116858;1199;22333;-62